Time;durP1;ratioP1;P1;durP2;ratioP2;P2;SDS_P1;SDS_P2;PMS_P1;PMS_P2;Temp;Humidity;BMP_temperature;BMP_pressure;BME280_temperature;BME280_humidity;BME280_pressure;Samples;Min_cycle;Max_cycle;Signal;HPM_P1;HPM_P2
2023/10/31 00:01:58;;;;;;;;;;;;;;;12.36;100.00;98796.50;5064811;28;19975;-64
2023/10/31 00:04:25;;;;;;;;;;;;;;;12.34;100.00;98794.03;5057886;28;19929;-64
2023/10/31 00:06:52;;;;;;;;;;;;;;;12.32;100.00;98788.03;5068635;28;19978;-64
2023/10/31 00:09:19;;;;;;;;;;;;;;;12.30;100.00;98799.72;5073815;28;19974;-63
2023/10/31 00:11:46;;;;;;;;;;;;;;;12.30;100.00;98800.56;5086796;22;19967;-84
2023/10/31 00:14:14;;;;;;;;;;;;;;;12.29;100.00;98798.06;5129541;27;19970;-86
2023/10/31 00:16:57;;;;;;;;;;;;;;;12.28;100.00;98789.31;5103406;28;19948;-83
2023/10/31 00:19:25;;;;;;;;;;;;;;;12.29;100.00;98803.31;5096573;28;20000;-83
2023/10/31 00:21:52;;;;;;;;;;;;;;;12.28;100.00;98804.31;5089666;28;20183;-83
2023/10/31 00:24:20;;;;;;;;;;;;;;;12.28;100.00;98807.78;5086487;28;20379;-84
2023/10/31 00:29:40;;;;;;;;;;;;;;;12.28;100.00;98820.97;5086451;28;19924;-83
2023/10/31 00:32:07;;;;;;;;;;;;;;;12.28;100.00;98807.78;5055485;28;19951;-81
2023/10/31 00:34:34;;;;;;;;;;;;;;;12.28;100.00;98794.59;5079330;28;19974;-83
2023/10/31 00:37:01;;;;;;;;;;;;;;;12.31;100.00;98791.66;5081807;28;19925;-84
2023/10/31 00:39:28;;;;;;;;;;;;;;;12.30;100.00;98790.00;5068562;28;19994;-84
2023/10/31 00:41:56;;;;;;;;;;;;;;;12.22;100.00;98775.88;5100259;28;20375;-84
2023/10/31 00:44:23;;;;;;;;;;;;;;;12.20;100.00;98789.19;5066410;28;19991;-83
2023/10/31 00:46:50;;;;;;;;;;;;;;;12.20;100.00;98775.19;5105616;28;19950;-83
2023/10/31 00:49:17;;;;;;;;;;;;;;;12.19;100.00;98768.25;5081833;28;19924;-84
2023/10/31 00:51:44;;;;;;;;;;;;;;;12.18;100.00;98782.44;5064499;28;19928;-82
2023/10/31 00:54:11;;;;;;;;;;;;;;;12.15;100.00;98779.09;5087874;28;19978;-82
2023/10/31 00:56:38;;;;;;;;;;;;;;;12.12;100.00;98784.66;5083360;28;19924;-83
2023/10/31 00:59:05;;;;;;;;;;;;;;;12.12;100.00;98782.03;5087123;28;19925;-83
2023/10/31 01:01:33;;;;;;;;;;;;;;;12.09;100.00;98795.50;5086211;28;19956;-83
2023/10/31 01:04:00;;;;;;;;;;;;;;;12.08;100.00;98790.38;5067281;28;19924;-82
2023/10/31 01:06:27;;;;;;;;;;;;;;;12.09;100.00;98795.50;5066979;28;19924;-83
2023/10/31 01:08:55;;;;;;;;;;;;;;;12.10;100.00;98786.59;5087350;28;19935;-83
2023/10/31 01:11:22;;;;;;;;;;;;;;;12.11;100.00;98774.25;5087139;28;19960;-82
2023/10/31 01:13:49;;;;;;;;;;;;;;;12.08;100.00;98764.84;5100878;28;19926;-83
2023/10/31 01:16:17;;;;;;;;;;;;;;;12.09;100.00;98755.94;5106626;28;19925;-84
2023/10/31 01:18:44;;;;;;;;;;;;;;;12.08;100.00;98754.28;5087468;28;19933;-84
2023/10/31 01:21:11;;;;;;;;;;;;;;;12.09;100.00;98752.47;5086375;28;19925;-83
2023/10/31 01:23:38;;;;;;;;;;;;;;;12.07;100.00;98744.72;5085234;28;20411;-84
2023/10/31 01:26:05;;;;;;;;;;;;;;;12.07;100.00;98736.81;5084531;28;19947;-84
2023/10/31 01:28:32;;;;;;;;;;;;;;;12.04;100.00;98733.63;5098535;28;19970;-82
2023/10/31 01:31:00;;;;;;;;;;;;;;;12.04;100.00;98731.81;5101150;28;20374;-85
2023/10/31 01:33:27;;;;;;;;;;;;;;;12.04;100.00;98707.25;5088414;28;20309;-84
2023/10/31 01:35:54;;;;;;;;;;;;;;;12.04;100.00;98694.88;5082582;28;19928;-83
2023/10/31 01:38:21;;;;;;;;;;;;;;;12.05;100.00;98699.19;5079973;28;19929;-85
2023/10/31 01:40:50;;;;;;;;;;;;;;;12.03;100.00;98722.25;5090626;28;19925;-82
2023/10/31 01:43:30;;;;;;;;;;;;;;;12.02;100.00;98736.41;5074462;28;19924;-83
2023/10/31 01:45:59;;;;;;;;;;;;;;;11.97;100.00;98725.44;5085846;28;19947;-81
2023/10/31 01:48:27;;;;;;;;;;;;;;;11.96;100.00;98721.16;5073361;28;19924;-83
2023/10/31 01:50:55;;;;;;;;;;;;;;;11.96;100.00;98721.16;5072491;28;19924;-84
2023/10/31 01:53:23;;;;;;;;;;;;;;;11.96;100.00;98713.25;5092933;28;19950;-84
2023/10/31 01:55:50;;;;;;;;;;;;;;;11.94;100.00;98709.94;5073556;28;19924;-84
2023/10/31 01:58:17;;;;;;;;;;;;;;;11.95;100.00;98713.41;5086481;28;19925;-85
2023/10/31 02:00:45;;;;;;;;;;;;;;;11.95;100.00;98708.13;5094105;28;19929;-83
2023/10/31 02:03:12;;;;;;;;;;;;;;;11.90;100.00;98711.19;5072622;28;19954;-83
2023/10/31 02:05:39;;;;;;;;;;;;;;;11.85;100.00;98700.25;5079238;28;19924;-83
2023/10/31 02:08:08;;;;;;;;;;;;;;;11.80;100.00;98687.50;5086146;28;19929;-83
2023/10/31 02:10:35;;;;;;;;;;;;;;;11.83;100.00;98689.00;5088225;28;19924;-82
2023/10/31 02:13:12;;;;;;;;;;;;;;;11.87;100.00;98675.41;5062581;28;20088;-84
2023/10/31 02:15:39;;;;;;;;;;;;;;;11.89;100.00;98681.38;5090903;28;19924;-83
2023/10/31 02:18:07;;;;;;;;;;;;;;;11.88;100.00;98684.13;5093100;28;19993;-82
2023/10/31 02:20:34;;;;;;;;;;;;;;;11.86;100.00;98660.56;5086268;28;20018;-83
2023/10/31 02:23:02;;;;;;;;;;;;;;;11.86;100.00;98651.81;5071133;28;19930;-83
2023/10/31 02:25:29;;;;;;;;;;;;;;;11.87;100.00;98669.28;5056357;28;19925;-83
2023/10/31 02:27:56;;;;;;;;;;;;;;;11.86;100.00;98660.56;5071411;28;19982;-84
2023/10/31 02:30:23;;;;;;;;;;;;;;;11.86;100.00;98651.81;5072834;28;19928;-84
2023/10/31 02:32:50;;;;;;;;;;;;;;;11.84;100.00;98645.84;5090939;28;19966;-84
2023/10/31 02:35:18;;;;;;;;;;;;;;;11.82;100.00;98643.38;5092450;28;20355;-82
2023/10/31 02:37:45;;;;;;;;;;;;;;;11.84;100.00;98625.63;5104088;28;19963;-82
2023/10/31 02:40:13;;;;;;;;;;;;;;;11.86;100.00;98631.56;5109975;28;19928;-84
2023/10/31 02:42:40;;;;;;;;;;;;;;;11.86;100.00;98642.09;5087625;28;19978;-85
2023/10/31 02:45:07;;;;;;;;;;;;;;;11.87;100.00;98643.75;5091576;28;19924;-82
2023/10/31 02:47:34;;;;;;;;;;;;;;;11.86;100.00;98641.28;5057137;28;19947;-83
2023/10/31 02:50:02;;;;;;;;;;;;;;;11.83;100.00;98645.03;5075326;28;19928;-82
2023/10/31 02:52:29;;;;;;;;;;;;;;;11.81;100.00;98648.78;5047284;28;19954;-82
2023/10/31 02:54:56;;;;;;;;;;;;;;;11.72;100.00;98641.75;5091716;28;19947;-83
2023/10/31 02:57:23;;;;;;;;;;;;;;;11.64;100.00;98631.91;5094086;28;19924;-83
2023/10/31 02:59:51;;;;;;;;;;;;;;;11.61;100.00;98630.38;5072190;28;19925;-83
2023/10/31 03:02:18;;;;;;;;;;;;;;;11.62;100.00;98633.88;5092667;28;19940;-83
2023/10/31 03:04:45;;;;;;;;;;;;;;;11.59;100.00;98626.25;5100103;28;19928;-82
2023/10/31 03:07:13;;;;;;;;;;;;;;;11.55;100.00;98625.72;5098412;28;19979;-81
2023/10/31 03:09:40;;;;;;;;;;;;;;;11.53;100.00;98621.56;5098817;28;20009;-85
2023/10/31 03:12:07;;;;;;;;;;;;;;;11.52;100.00;98628.63;5091218;28;19924;-84
2023/10/31 03:14:34;;;;;;;;;;;;;;;11.50;100.00;98619.22;5094233;28;19928;-84
2023/10/31 03:17:01;;;;;;;;;;;;;;;11.45;100.00;98616.19;5099555;28;19923;-83
2023/10/31 03:19:28;;;;;;;;;;;;;;;11.44;100.00;98612.72;5100373;28;19929;-83
2023/10/31 03:21:56;;;;;;;;;;;;;;;11.45;100.00;98603.03;5087902;28;19968;-83
2023/10/31 03:24:25;;;;;;;;;;;;;;;11.48;100.00;98611.44;5062934;28;19924;-85
2023/10/31 03:26:52;;;;;;;;;;;;;;;11.49;100.00;98609.66;5095368;28;19919;-85
2023/10/31 03:29:19;;;;;;;;;;;;;;;11.48;100.00;98623.78;5091413;28;19946;-84
2023/10/31 03:31:47;;;;;;;;;;;;;;;11.45;100.00;98617.03;5068068;28;19979;-83
2023/10/31 03:34:14;;;;;;;;;;;;;;;11.43;100.00;98616.31;5075206;28;19928;-83
2023/10/31 03:36:41;;;;;;;;;;;;;;;11.36;100.00;98620.53;5085907;28;19936;-84
2023/10/31 03:39:09;;;;;;;;;;;;;;;11.27;100.00;98616.94;5057680;28;20366;-84
2023/10/31 03:41:36;;;;;;;;;;;;;;;11.28;100.00;98623.88;5057736;28;19943;-84
2023/10/31 03:44:03;;;;;;;;;;;;;;;11.26;100.00;98625.84;5076017;28;19950;-83
2023/10/31 03:46:30;;;;;;;;;;;;;;;11.23;100.00;98625.28;5095372;28;19924;-83
2023/10/31 03:48:58;;;;;;;;;;;;;;;11.22;100.00;98621.00;5107161;28;20107;-84
2023/10/31 03:51:25;;;;;;;;;;;;;;;11.22;100.00;98623.63;5089335;28;19924;-83
2023/10/31 03:53:52;;;;;;;;;;;;;;;11.24;100.00;98627.75;5087249;28;19924;-84
2023/10/31 03:56:20;;;;;;;;;;;;;;;11.24;100.00;98625.13;5087844;28;19974;-84
2023/10/31 03:58:47;;;;;;;;;;;;;;;11.22;100.00;98629.72;5093341;28;19925;-83
2023/10/31 04:01:14;;;;;;;;;;;;;;;11.16;100.00;98628.47;5092024;28;19939;-84
2023/10/31 04:03:42;;;;;;;;;;;;;;;11.11;100.00;98627.25;5072687;28;19931;-85
2023/10/31 04:06:09;;;;;;;;;;;;;;;11.10;100.00;98626.41;5096163;28;19924;-83
2023/10/31 04:08:36;;;;;;;;;;;;;;;11.08;100.00;98633.63;5093247;28;19962;-83
2023/10/31 04:11:03;;;;;;;;;;;;;;;11.08;100.00;98628.38;5075476;28;19951;-84
2023/10/31 04:13:31;;;;;;;;;;;;;;;11.05;100.00;98627.81;5096433;28;19925;-81
2023/10/31 04:15:58;;;;;;;;;;;;;;;11.02;100.00;98628.09;5098996;28;19924;-83
2023/10/31 04:18:25;;;;;;;;;;;;;;;10.92;100.00;98628.13;5091405;28;19928;-83
2023/10/31 04:20:52;;;;;;;;;;;;;;;10.86;100.00;98623.44;5105503;28;19970;-84
2023/10/31 04:23:19;;;;;;;;;;;;;;;10.89;100.00;98623.13;5085334;28;19936;-82
2023/10/31 04:25:46;;;;;;;;;;;;;;;10.89;100.00;98628.41;5085718;28;19925;-84
2023/10/31 04:28:14;;;;;;;;;;;;;;;10.83;100.00;98626.34;5058825;28;19932;-84
2023/10/31 04:30:41;;;;;;;;;;;;;;;10.88;100.00;98624.09;5068345;28;20379;-84
2023/10/31 04:33:08;;;;;;;;;;;;;;;10.85;100.00;98621.75;5057616;28;19950;-84
2023/10/31 04:35:36;;;;;;;;;;;;;;;10.87;100.00;98612.75;5110734;28;19936;-84
2023/10/31 04:38:04;;;;;;;;;;;;;;;10.83;100.00;98614.00;5094942;28;19912;-83
2023/10/31 04:40:31;;;;;;;;;;;;;;;10.87;100.00;98614.56;5076579;28;19924;-82
2023/10/31 04:42:59;;;;;;;;;;;;;;;10.86;100.00;98618.16;5098721;28;19936;-85
2023/10/31 04:45:26;;;;;;;;;;;;;;;10.88;100.00;98617.03;5080644;28;19928;-84
2023/10/31 04:47:53;;;;;;;;;;;;;;;10.87;100.00;98604.84;5077280;28;19951;-82
2023/10/31 04:50:21;;;;;;;;;;;;;;;10.86;100.00;98602.38;5102420;28;19924;-85
2023/10/31 04:52:48;;;;;;;;;;;;;;;10.85;100.00;98611.22;5089120;28;19924;-84
2023/10/31 04:58:27;;;;;;;;;;;;;;;10.89;100.00;98610.78;5105124;28;20305;-84
2023/10/31 05:00:54;;;;;;;;;;;;;;;10.94;100.00;98599.00;5082920;28;20530;-84
2023/10/31 05:03:21;;;;;;;;;;;;;;;10.98;100.00;98606.47;5086796;28;19924;-83
2023/10/31 05:05:49;;;;;;;;;;;;;;;10.96;100.00;98600.53;5091187;28;19951;-84
2023/10/31 05:08:16;;;;;;;;;;;;;;;11.01;100.00;98611.47;5068583;28;19987;-83
2023/10/31 05:10:44;;;;;;;;;;;;;;;11.05;100.00;98602.31;5081409;28;19928;-84
2023/10/31 05:13:11;;;;;;;;;;;;;;;11.07;100.00;98605.63;5091235;28;20413;-84
2023/10/31 05:15:38;;;;;;;;;;;;;;;10.96;100.00;98604.97;5050835;28;19924;-84
2023/10/31 05:18:05;;;;;;;;;;;;;;;10.96;100.00;98612.88;5054278;28;19924;-82
2023/10/31 05:20:33;;;;;;;;;;;;;;;11.03;100.00;98619.22;5082099;28;19947;-83
2023/10/31 05:23:00;;;;;;;;;;;;;;;10.99;100.00;98620.50;5113480;28;19925;-82
2023/10/31 05:25:28;;;;;;;;;;;;;;;10.98;100.00;98611.75;5118267;28;19935;-82
2023/10/31 05:27:55;;;;;;;;;;;;;;;11.02;100.00;98609.66;5077047;28;19924;-84
2023/10/31 05:30:23;;;;;;;;;;;;;;;11.02;100.00;98609.66;5061135;28;19940;-84
2023/10/31 05:32:50;;;;;;;;;;;;;;;11.03;100.00;98599.00;5087843;28;19931;-83
2023/10/31 05:35:17;;;;;;;;;;;;;;;11.08;100.00;98609.94;5091563;28;19928;-82
2023/10/31 05:37:46;;;;;;;;;;;;;;;11.13;100.00;98610.34;5101259;28;19950;-84
2023/10/31 05:40:14;;;;;;;;;;;;;;;11.14;100.00;98605.91;5097154;28;19912;-83
2023/10/31 05:42:41;;;;;;;;;;;;;;;11.10;100.00;98607.97;5099066;28;19913;-83
2023/10/31 05:45:08;;;;;;;;;;;;;;;11.14;100.00;98606.72;5105547;28;19939;-82
2023/10/31 05:47:35;;;;;;;;;;;;;;;11.17;100.00;98610.88;5106564;28;19924;-83
2023/10/31 05:50:03;;;;;;;;;;;;;;;11.21;100.00;98606.97;5091707;28;19990;-83
2023/10/31 05:52:31;;;;;;;;;;;;;;;11.25;100.00;98610.16;5070997;28;19928;-83
2023/10/31 05:54:59;;;;;;;;;;;;;;;11.26;100.00;98612.66;5090992;28;19932;-82
2023/10/31 05:57:26;;;;;;;;;;;;;;;11.22;100.00;98610.47;5102680;28;19924;-84
2023/10/31 05:59:53;;;;;;;;;;;;;;;11.26;100.00;98612.66;5063147;28;19929;-84
2023/10/31 06:02:20;;;;;;;;;;;;;;;11.27;100.00;98621.38;5095663;28;19965;-84
2023/10/31 06:04:48;;;;;;;;;;;;;;;11.28;100.00;98618.59;5081210;28;19931;-84
2023/10/31 06:07:15;;;;;;;;;;;;;;;11.30;100.00;98621.09;5092004;28;19939;-82
2023/10/31 06:09:42;;;;;;;;;;;;;;;11.26;100.00;98625.84;5073845;28;19947;-83
2023/10/31 06:12:09;;;;;;;;;;;;;;;11.27;100.00;98621.38;5112076;28;19922;-82
2023/10/31 06:14:36;;;;;;;;;;;;;;;11.32;100.00;98627.06;5104596;28;19913;-82
2023/10/31 06:17:04;;;;;;;;;;;;;;;11.29;100.00;98624.69;5095830;28;19946;-83
2023/10/31 06:19:37;;;;;;;;;;;;;;;11.33;100.00;98626.06;5103083;28;19939;-82
2023/10/31 06:22:04;;;;;;;;;;;;;;;11.28;100.00;98631.78;5086560;28;19912;-83
2023/10/31 06:24:31;;;;;;;;;;;;;;;11.29;100.00;98643.13;5102160;28;19963;-84
2023/10/31 06:26:58;;;;;;;;;;;;;;;11.30;100.00;98637.75;5063421;28;19946;-84
2023/10/31 06:29:25;;;;;;;;;;;;;;;11.31;100.00;98643.84;5079514;28;19951;-82
2023/10/31 06:32:13;;;;;;;;;;;;;;;11.35;100.00;98647.84;5101910;28;19946;-83
2023/10/31 06:34:40;;;;;;;;;;;;;;;11.39;100.00;98657.09;5090102;28;19924;-82
2023/10/31 06:37:07;;;;;;;;;;;;;;;11.41;100.00;98656.00;5104885;28;19924;-83
2023/10/31 06:39:34;;;;;;;;;;;;;;;11.39;100.00;98655.31;5086298;28;19986;-83
2023/10/31 06:42:01;;;;;;;;;;;;;;;11.41;100.00;98661.25;5078989;28;19941;-83
2023/10/31 06:44:28;;;;;;;;;;;;;;;11.42;100.00;98662.09;5067348;28;20409;-84
2023/10/31 06:46:55;;;;;;;;;;;;;;;11.44;100.00;98669.84;5088061;28;20001;-83
2023/10/31 06:49:23;;;;;;;;;;;;;;;11.47;100.00;98664.28;5091486;28;20132;-84
2023/10/31 06:51:50;;;;;;;;;;;;;;;11.51;100.00;98666.50;5089504;28;19987;-84
2023/10/31 06:54:18;;;;;;;;;;;;;;;11.50;100.00;98666.66;5094306;28;19928;-81
2023/10/31 06:56:45;;;;;;;;;;;;;;;11.52;100.00;98673.41;5087160;28;19928;-82
2023/10/31 06:59:12;;;;;;;;;;;;;;;11.57;100.00;98680.91;5093984;28;20469;-83
2023/10/31 07:01:39;;;;;;;;;;;;;;;11.60;100.00;98677.97;5088040;28;19924;-83
2023/10/31 07:04:06;;;;;;;;;;;;;;;11.72;100.00;98678.66;5086876;28;19928;-83
2023/10/31 07:06:33;;;;;;;;;;;;;;;11.70;100.00;98683.22;5084743;28;19974;-83
2023/10/31 07:09:04;;;;;;;;;;;;;;;11.75;100.00;98678.31;5047689;28;19924;-83
2023/10/31 07:11:34;;;;;;;;;;;;;;;11.80;100.00;98681.38;5080431;28;20095;-82
2023/10/31 07:14:04;;;;;;;;;;;;;;;11.76;100.00;98686.13;5084375;28;19967;-83
2023/10/31 07:16:32;;;;;;;;;;;;;;;11.77;100.00;98686.94;5093688;28;19924;-82
2023/10/31 07:18:59;;;;;;;;;;;;;;;11.86;100.00;98694.84;5087442;28;19931;-83
2023/10/31 07:21:26;;;;;;;;;;;;;;;11.83;100.00;98702.19;5095363;28;19946;-84
2023/10/31 07:23:53;;;;;;;;;;;;;;;11.76;100.00;98732.75;5079266;28;19928;-83
2023/10/31 07:26:21;;;;;;;;;;;;;;;11.77;100.00;98734.38;5081497;28;19974;-84
2023/10/31 07:28:48;;;;;;;;;;;;;;;11.75;100.00;98731.91;5096843;28;19924;-84
2023/10/31 07:31:15;;;;;;;;;;;;;;;11.63;100.00;98722.50;5097019;28;19924;-82
2023/10/31 07:33:43;;;;;;;;;;;;;;;11.71;100.00;98733.16;5101744;28;19954;-83
2023/10/31 07:36:11;;;;;;;;;;;;;;;11.73;100.00;98740.91;5084668;28;20414;-83
2023/10/31 07:38:38;;;;;;;;;;;;;;;11.70;100.00;98738.56;5073556;28;19929;-82
2023/10/31 07:41:06;;;;;;;;;;;;;;;11.70;100.00;98744.66;5079024;28;19994;-83
2023/10/31 07:43:33;;;;;;;;;;;;;;;11.68;100.00;98761.63;5072349;28;20370;-83
2023/10/31 07:46:04;;;;;;;;;;;;;;;11.68;100.00;98744.00;5077248;28;19956;-84
2023/10/31 07:48:31;;;;;;;;;;;;;;;11.70;100.00;98755.22;5094277;28;20309;-84
2023/10/31 07:50:58;;;;;;;;;;;;;;;11.71;100.00;98750.75;5077698;28;20205;-83
2023/10/31 07:53:25;;;;;;;;;;;;;;;11.61;100.00;98769.25;5081755;28;20353;-83
2023/10/31 07:55:55;;;;;;;;;;;;;;;11.68;100.00;98769.53;5081352;28;19931;-83
2023/10/31 07:58:22;;;;;;;;;;;;;;;11.64;100.00;98775.06;5085693;28;19931;-83
2023/10/31 08:00:49;;;;;;;;;;;;;;;11.65;100.00;98773.25;5089850;28;19924;-83
2023/10/31 08:03:17;;;;;;;;;;;;;;;11.62;100.00;98763.03;5061542;28;19952;-83
2023/10/31 08:05:44;;;;;;;;;;;;;;;11.55;100.00;98775.91;5075283;28;19960;-83
2023/10/31 08:08:12;;;;;;;;;;;;;;;11.61;100.00;98756.88;5068161;28;19932;-83
2023/10/31 08:10:39;;;;;;;;;;;;;;;11.66;100.00;98770.50;5096022;28;19912;-83
2023/10/31 08:13:06;;;;;;;;;;;;;;;11.69;100.00;98802.81;5068683;28;19935;-82
2023/10/31 08:15:33;;;;;;;;;;;;;;;11.59;100.00;98798.38;5085890;28;19919;-82
2023/10/31 08:18:00;;;;;;;;;;;;;;;11.71;100.00;98795.56;5101728;28;19913;-83
2023/10/31 08:20:33;;;;;;;;;;;;;;;11.68;100.00;98804.63;5097183;28;19920;-83
2023/10/31 08:23:00;;;;;;;;;;;;;;;11.71;100.00;98814.03;5070465;28;19929;-83
2023/10/31 08:25:27;;;;;;;;;;;;;;;11.58;100.00;98798.53;5100914;28;19974;-82
2023/10/31 08:27:54;;;;;;;;;;;;;;;11.57;100.00;98802.13;5107227;28;19928;-83
2023/10/31 08:30:21;;;;;;;;;;;;;;;11.58;100.00;98824.88;5102149;28;19912;-83
2023/10/31 08:32:48;;;;;;;;;;;;;;;11.57;100.00;98828.47;5071340;28;19954;-83
2023/10/31 08:35:53;;;;;;;;;;;;;;;11.50;100.00;98817.69;5090183;28;19912;-82
2023/10/31 08:38:20;;;;;;;;;;;;;;;11.39;100.00;98816.03;5106022;28;19912;-83
2023/10/31 08:40:58;;;;;;;;;;;;;;;11.54;100.00;98821.69;5100742;28;20118;-82
2023/10/31 08:43:25;;;;;;;;;;;;;;;11.68;100.00;98845.97;5090850;28;19939;-82
2023/10/31 08:45:52;;;;;;;;;;;;;;;11.94;100.00;98836.50;5085612;28;19931;-82
2023/10/31 08:48:19;;;;;;;;;;;;;;;11.97;100.00;98840.66;5105135;28;19952;-83
2023/10/31 08:50:46;;;;;;;;;;;;;;;11.85;100.00;98848.75;5084956;28;19931;-84
2023/10/31 08:53:13;;;;;;;;;;;;;;;11.85;100.00;98832.91;5088214;28;19924;-82
2023/10/31 08:55:43;;;;;;;;;;;;;;;11.98;100.00;98829.97;5056646;28;19924;-82
2023/10/31 08:58:11;;;;;;;;;;;;;;;11.90;100.00;98835.97;5091927;28;19958;-82
2023/10/31 09:00:40;;;;;;;;;;;;;;;11.87;100.00;98845.94;5108308;28;19924;-84
2023/10/31 09:03:07;;;;;;;;;;;;;;;11.87;100.00;98846.78;5091284;22;19982;-53
2023/10/31 09:05:35;;;;;;;;;;;;;;;11.78;100.00;98841.50;5069119;28;20525;-57
2023/10/31 09:08:02;;;;;;;;;;;;;;;11.86;100.00;98847.75;5069219;28;19967;-56
2023/10/31 09:10:29;;;;;;;;;;;;;;;11.79;100.00;98853.69;5066057;28;19924;-57
2023/10/31 09:12:56;;;;;;;;;;;;;;;11.76;100.00;98854.00;5066105;28;19975;-57
2023/10/31 09:15:23;;;;;;;;;;;;;;;11.68;100.00;98859.97;5067835;28;20015;-56
2023/10/31 09:17:50;;;;;;;;;;;;;;;11.83;100.00;98878.84;5068766;28;20648;-51
2023/10/31 09:20:17;;;;;;;;;;;;;;;11.82;98.80;98869.25;5062664;28;19928;-55
2023/10/31 09:22:44;;;;;;;;;;;;;;;11.82;98.99;98880.66;5065206;28;19929;-54
2023/10/31 09:25:11;;;;;;;;;;;;;;;11.88;97.39;98926.72;5065185;28;19925;-54
2023/10/31 09:27:41;;;;;;;;;;;;;;;11.98;96.30;98873.94;5051412;28;19931;-55
2023/10/31 09:30:09;;;;;;;;;;;;;;;12.08;95.66;98858.97;5069389;28;20023;-52
2023/10/31 09:32:36;;;;;;;;;;;;;;;12.04;94.35;98881.31;5060485;28;20015;-55
2023/10/31 09:35:03;;;;;;;;;;;;;;;11.88;94.48;98871.34;5065066;28;20036;-54
2023/10/31 09:37:31;;;;;;;;;;;;;;;11.85;96.30;98882.19;5064080;28;20413;-53
2023/10/31 09:39:58;;;;;;;;;;;;;;;11.94;96.24;98889.25;5063537;28;20027;-55
2023/10/31 09:42:25;;;;;;;;;;;;;;;11.74;95.53;98904.22;5081260;28;20019;-50
2023/10/31 09:44:52;;;;;;;;;;;;;;;11.81;95.33;98899.22;5061453;28;19929;-54
2023/10/31 09:47:20;;;;;;;;;;;;;;;11.83;94.72;98907.84;5068670;28;20410;-54
2023/10/31 09:49:47;;;;;;;;;;;;;;;11.78;95.04;98904.75;5059337;28;19928;-53
2023/10/31 09:52:14;;;;;;;;;;;;;;;11.74;95.93;98904.22;5063701;28;20016;-54
2023/10/31 09:54:41;;;;;;;;;;;;;;;11.72;97.03;98911.44;5066843;28;20933;-56
2023/10/31 09:57:11;;;;;;;;;;;;;;;11.66;95.75;98914.63;5057239;28;19924;-55
2023/10/31 09:59:38;;;;;;;;;;;;;;;11.90;94.12;98928.25;5069236;28;19929;-54
2023/10/31 10:02:05;;;;;;;;;;;;;;;12.03;93.45;98925.31;5051960;28;20570;-53
2023/10/31 10:04:32;;;;;;;;;;;;;;;12.08;93.09;98922.25;5062131;28;20019;-58
2023/10/31 10:07:02;;;;;;;;;;;;;;;12.02;92.41;98952.69;5063655;28;21287;-55
2023/10/31 10:09:29;;;;;;;;;;;;;;;11.88;93.53;98931.97;5056944;28;20418;-53
2023/10/31 10:11:56;;;;;;;;;;;;;;;11.99;94.17;98918.66;5058002;28;20399;-56
2023/10/31 10:14:23;;;;;;;;;;;;;;;12.01;94.50;98926.41;5051497;28;19925;-59
2023/10/31 10:16:50;;;;;;;;;;;;;;;11.82;93.56;98921.97;5063615;28;19993;-56
2023/10/31 10:19:19;;;;;;;;;;;;;;;12.00;93.25;98932.69;5064059;28;19933;-57
2023/10/31 10:21:52;;;;;;;;;;;;;;;12.09;93.09;98930.03;5065364;28;19955;-56
2023/10/31 10:24:19;;;;;;;;;;;;;;;12.21;92.29;98958.91;5062339;28;19929;-49
2023/10/31 10:26:46;;;;;;;;;;;;;;;12.21;92.56;98928.06;5065047;28;20412;-54
2023/10/31 10:29:14;;;;;;;;;;;;;;;11.99;92.96;98939.75;5065278;28;20015;-55
2023/10/31 10:31:42;;;;;;;;;;;;;;;12.21;92.64;98935.16;5068748;28;20023;-51
2023/10/31 10:34:09;;;;;;;;;;;;;;;12.35;92.76;98924.97;5065291;28;19956;-52
2023/10/31 10:36:36;;;;;;;;;;;;;;;12.29;92.03;98932.59;5062441;28;19929;-55
2023/10/31 10:39:04;;;;;;;;;;;;;;;12.35;92.28;98943.44;5078134;28;19929;-56
2023/10/31 10:41:31;;;;;;;;;;;;;;;12.69;91.40;98942.91;5063749;28;20015;-57
2023/10/31 10:44:07;;;;;;;;;;;;;;;12.65;90.38;98941.53;5064228;28;19925;-54
2023/10/31 10:46:35;;;;;;;;;;;;;;;12.68;89.60;98938.59;5064569;28;19925;-55
2023/10/31 10:49:03;;;;;;;;;;;;;;;12.76;89.37;98936.09;5065646;28;19971;-53
2023/10/31 10:51:49;;;;;;;;;;;;;;;12.66;88.81;98930.00;5067460;28;19925;-54
2023/10/31 10:54:20;;;;;;;;;;;;;;;12.68;88.93;98926.22;5066797;28;19929;-54
2023/10/31 10:56:55;;;;;;;;;;;;;;;12.71;88.28;98932.22;5067228;28;19979;-53
2023/10/31 10:59:26;;;;;;;;;;;;;;;12.47;88.70;98928.25;5067020;28;19971;-54
2023/10/31 11:01:53;;;;;;;;;;;;;;;12.46;88.76;98921.31;5066052;28;20031;-52
2023/10/31 11:04:21;;;;;;;;;;;;;;;12.66;88.79;98961.69;5066772;28;19939;-53
2023/10/31 11:06:48;;;;;;;;;;;;;;;12.70;87.16;98922.59;5066232;28;20027;-53
2023/10/31 11:09:15;;;;;;;;;;;;;;;12.82;86.68;98917.00;5064885;28;20366;-54
2023/10/31 11:11:48;;;;;;;;;;;;;;;13.25;85.42;98906.81;5055442;28;20250;-52
2023/10/31 11:14:16;;;;;;;;;;;;;;;13.56;83.79;98915.19;5061823;28;19971;-61
2023/10/31 11:16:53;;;;;;;;;;;;;;;13.28;83.15;98917.06;5058103;28;20299;-55
2023/10/31 11:19:20;;;;;;;;;;;;;;;13.06;83.96;98918.28;5067525;28;19932;-53
2023/10/31 11:22:00;;;;;;;;;;;;;;;12.98;84.46;98924.31;5066936;28;19924;-53
2023/10/31 11:24:28;;;;;;;;;;;;;;;12.79;85.88;98933.16;5065456;28;19951;-51
2023/10/31 11:26:58;;;;;;;;;;;;;;;12.60;85.88;98965.72;5064127;28;19931;-55
2023/10/31 11:29:25;;;;;;;;;;;;;;;12.64;87.21;98939.88;5066673;28;19960;-49
2023/10/31 11:31:56;;;;;;;;;;;;;;;12.53;87.53;98948.81;5071501;28;19978;-52
2023/10/31 11:34:25;;;;;;;;;;;;;;;12.49;88.21;98963.28;5068212;28;19932;-52
2023/10/31 11:36:52;;;;;;;;;;;;;;;12.49;88.78;98963.28;5069332;28;20335;-55
2023/10/31 11:39:21;;;;;;;;;;;;;;;12.46;88.89;98942.44;5065285;28;20440;-51
2023/10/31 11:41:49;;;;;;;;;;;;;;;12.52;88.28;98955.06;5066915;28;20015;-55
2023/10/31 11:44:16;;;;;;;;;;;;;;;12.54;88.55;98952.28;5066698;28;19932;-56
2023/10/31 11:46:47;;;;;;;;;;;;;;;12.44;89.42;98964.69;5068071;28;20038;-54
2023/10/31 11:49:14;;;;;;;;;;;;;;;12.42;90.04;98959.53;5059046;28;19971;-56
2023/10/31 11:51:44;;;;;;;;;;;;;;;12.50;89.35;98964.94;5063911;28;19935;-57
2023/10/31 11:54:11;;;;;;;;;;;;;;;12.50;89.59;98970.19;5066797;28;20008;-54
2023/10/31 11:56:38;;;;;;;;;;;;;;;12.62;89.15;98984.91;5065445;28;19928;-54
2023/10/31 11:59:07;;;;;;;;;;;;;;;13.93;82.69;98965.28;5063742;28;19951;-54
2023/10/31 12:01:43;;;;;;;;;;;;;;;15.91;74.78;98977.53;5068187;28;19924;-56
2023/10/31 12:04:20;;;;;;;;;;;;;;;17.12;65.77;98998.81;5061082;28;20027;-54
2023/10/31 12:06:56;;;;;;;;;;;;;;;16.24;66.85;98985.50;5065786;28;19964;-59
2023/10/31 12:09:23;;;;;;;;;;;;;;;15.33;67.79;99002.25;5068722;28;20014;-57
2023/10/31 12:11:50;;;;;;;;;;;;;;;14.70;71.29;98992.84;5067593;28;20014;-56
2023/10/31 12:14:18;;;;;;;;;;;;;;;14.08;73.65;98984.91;5067716;28;20007;-55
2023/10/31 12:16:46;;;;;;;;;;;;;;;13.62;75.70;98994.75;5066980;28;19960;-54
2023/10/31 12:19:13;;;;;;;;;;;;;;;13.14;78.02;98987.88;5066039;28;19994;-54
2023/10/31 12:21:41;;;;;;;;;;;;;;;12.93;79.63;99014.56;5067642;28;19952;-56
2023/10/31 12:24:12;;;;;;;;;;;;;;;12.75;80.28;99004.88;5073318;28;20450;-59
2023/10/31 12:26:39;;;;;;;;;;;;;;;12.80;80.08;98998.19;5068704;28;19968;-57
2023/10/31 12:29:09;;;;;;;;;;;;;;;12.52;80.57;99051.88;5069792;28;19947;-54
2023/10/31 12:31:41;;;;;;;;;;;;;;;12.67;81.00;99006.44;5073144;28;19950;-56
2023/10/31 12:34:08;;;;;;;;;;;;;;;12.67;80.96;99011.69;5068497;28;19956;-56
2023/10/31 12:36:35;;;;;;;;;;;;;;;12.66;80.03;99031.16;5068344;28;20027;-54
2023/10/31 12:39:03;;;;;;;;;;;;;;;12.58;80.47;99001.19;5067903;28;20024;-53
2023/10/31 12:41:30;;;;;;;;;;;;;;;12.55;80.37;99022.56;5067110;28;19924;-56
2023/10/31 12:43:57;;;;;;;;;;;;;;;12.72;79.39;99024.47;5065322;28;20031;-58
2023/10/31 12:46:26;;;;;;;;;;;;;;;12.67;79.47;99029.34;5065158;28;20350;-57
2023/10/31 12:48:52;;;;;;;;;;;;;;;12.65;79.89;99029.50;5073319;28;20275;-56
2023/10/31 12:51:19;;;;;;;;;;;;;;;12.80;80.14;99037.81;5068034;28;20435;-52